This is the latest recevied weather packets stored in our database for station/object SY3EBK-13. If no packets are shown the sender has not sent any weather packets the latest 10 day(s).
| Time | Temp. | Humidity | Pressure | Rain* | Wind** | Luminosity | Snow |
|---|---|---|---|---|---|---|---|
| 1777674329 | 6.11° C | 72% | 914.7 hPa | - | 0 m/s | - | - |
| 1777669829 | 6.67° C | 74% | 914.8 hPa | - | 0 m/s | - | - |
| 1777668929 | 6.11° C | 75% | 914.9 hPa | - | 0 m/s | - | - |
| 1777667129 | 6.11° C | 75% | 914.9 hPa | - | 0 m/s | - | - |
| 1777666229 | 6.11° C | 75% | 914.9 hPa | - | 0 m/s | - | - |
| 1777664431 | 7.22° C | 71% | 914.9 hPa | - | 0 m/s | - | - |
| 1777662629 | 7.22° C | 73% | 914.8 hPa | - | 0 m/s | - | - |
| 1777661729 | 7.22° C | 72% | 914.9 hPa | - | 0 m/s | - | - |
| 1777659929 | 7.22° C | 73% | 914.5 hPa | - | 0 m/s | - | - |
| 1777659029 | 7.22° C | 73% | 914.3 hPa | - | 0 m/s | - | - |
| 1777655429 | 7.78° C | 71% | 913.7 hPa | - | 0 m/s | - | - |
| 1777654529 | 7.78° C | 71% | 913.7 hPa | - | 0 m/s | - | - |
| 1777652729 | 7.78° C | 72% | 913.9 hPa | - | 0 m/s | - | - |
| 1777651829 | 7.78° C | 72% | 913.8 hPa | - | 0 m/s | - | - |
| 1777650929 | 7.78° C | 71% | 913.8 hPa | - | 0 m/s | - | - |
| 1777650029 | 8.33° C | 72% | 913.9 hPa | - | 0 m/s | - | - |
| 1777649129 | 8.33° C | 71% | 913.8 hPa | - | 0 m/s | - | - |
| 1777648229 | 8.89° C | 69% | 913.9 hPa | - | 0 m/s | - | - |
| 1777647329 | 8.33° C | 70% | 913.9 hPa | - | 0 m/s | - | - |
| 1777645529 | 8.89° C | 68% | 913.6 hPa | - | 0 m/s | - | - |
| 1777644629 | 8.89° C | 66% | 913.7 hPa | - | 0 m/s | - | - |
| 1777643729 | 8.89° C | 67% | 913.7 hPa | - | 0 m/s | - | - |
| 1777642829 | 8.89° C | 67% | 913.9 hPa | - | 0 m/s | - | - |
| 1777641929 | 8.89° C | 70% | 914.1 hPa | - | 0 m/s | - | - |
| 1777638329 | 10° C | 67% | 914.1 hPa | - | 0 m/s | - | - |
* Rain since midnight (hover to see other rain measurements)
** Current wind speed in m/s (hover to see current wind gust speed)